Etusivu
METAR-TAF:

METAR-TAF

Lentoasemat :

Tasiujaq, Quebec, Kanada

Leveyspiiri: 58-40N, Pituuspiiri: 069-57W, korkeus merenpinnasta: 31 m

Tämänhetkinen sää

Tämä raportti tehtiin 41 minuuttia sitten, kello 17.00 UTC
Tuuli 16 kn lännestä/luoteesta
Lämpötila -10°C
Kosteus 72%
Ilmanpaine 1033 hPa
Näkyvyys: 24.1 km
Muutamia pilviä 1000 ft:n korkeudessa

METAR: CYTQ 301700Z 29016KT 15SM FEW010 M10/M14 A3049 RMK SC1 SLP331

Aika: 13:41 (17:41 UTC)

Sääennuste

Tämä raportti tehtiin 4 tuntia ja 3 minuuttia sitten, kello 13.38 UTC
Ennuste voimassa 30. päivästä klo 14 UTC - 30. päivään klo 21 UTC
Tuuli 12 kn lännestä/luoteesta
Näkyvyys: 10 km
Muutamia pilviä 1200 ft:n korkeudessa

TAF: CYTQ 301338Z 3014/3021 30012KT P6SM FEW012 RMK NXT FCST WILL BE ISSUED AT 311345Z

Säähavainnot ja -ennusteet yli 4000 lentoasemalta (METAR- ja TAF-raportit).

Käytössä olevat sääasemat on merkitty karttaan keltaisilla ja punaisilla pisteillä.

Aseta hiiri pisteen päälle nähdäksesi sääaseman nimen.

Klikkaa sitten nähdäksesi säähavainnot ja -ennusteet.

Kartan vaihtaminen: klikkaa mustalla rastilla varustettuja vihreitä pisteitä, niin voit zoomata sisään; viivalla varustettua vihreää pistettä, niin voit zoomata ulos tai vihreitä nuolia, niin pääset viereisille kartoille.


METAR-TAF: